createdAt,value
2023-12-21T00:00:01.027Z,1018.4
2023-12-21T00:01:01.634Z,1018.3
2023-12-21T00:02:01.441Z,1018.4
2023-12-21T00:03:01.581Z,1018.4
2023-12-21T00:04:02.359Z,1018.4
2023-12-21T00:05:01.349Z,1018.3
2023-12-21T00:06:02.750Z,1018.4
2023-12-21T00:07:01.080Z,1018.4
2023-12-21T00:08:01.154Z,1018.4
2023-12-21T00:09:01.113Z,1018.4
2023-12-21T00:10:01.568Z,1018.4
2023-12-21T00:11:01.089Z,1018.4
2023-12-21T00:12:01.119Z,1018.4
2023-12-21T00:13:01.611Z,1018.4
2023-12-21T00:14:01.043Z,1018.4
2023-12-21T00:15:02.194Z,1018.4
2023-12-21T00:16:01.467Z,1018.4
2023-12-21T00:17:01.085Z,1018.4
2023-12-21T00:18:01.427Z,1018.3
2023-12-21T00:19:01.548Z,1018.4
2023-12-21T00:20:01.492Z,1018.3
2023-12-21T00:21:01.383Z,1018.4
2023-12-21T00:22:01.085Z,1018.3
2023-12-21T00:23:02.282Z,1018.4
2023-12-21T00:24:01.032Z,1018.4
2023-12-21T00:25:01.048Z,1018.4
2023-12-21T00:26:01.961Z,1018.4
2023-12-21T00:27:01.069Z,1018.4
2023-12-21T00:28:01.086Z,1018.4
2023-12-21T00:29:01.351Z,1018.4
2023-12-21T00:30:01.035Z,1018.4
2023-12-21T00:31:01.511Z,1018.4
2023-12-21T00:32:01.015Z,1018.4
2023-12-21T00:33:01.098Z,1018.4
2023-12-21T00:34:01.128Z,1018.4
2023-12-21T00:35:01.168Z,1018.3
2023-12-21T00:36:01.345Z,1018.4
2023-12-21T00:37:02.883Z,1018.3
2023-12-21T00:38:01.469Z,1018.4
2023-12-21T00:39:01.025Z,1018.3
2023-12-21T00:40:01.060Z,1018.3
2023-12-21T00:41:01.045Z,1018.4
2023-12-21T00:42:01.045Z,1018.4
2023-12-21T00:43:01.167Z,1018.3
2023-12-21T00:44:01.354Z,1018.4
2023-12-21T00:45:01.485Z,1018.4
2023-12-21T00:46:01.460Z,1018.4
2023-12-21T00:47:01.039Z,1018.4
2023-12-21T00:48:04.084Z,1018.4
2023-12-21T00:49:01.117Z,1018.4
2023-12-21T00:50:01.212Z,1018.3
2023-12-21T00:51:01.071Z,1018.3
2023-12-21T00:52:01.145Z,1018.4
2023-12-21T00:53:01.380Z,1018.4
2023-12-21T00:54:01.030Z,1018.4
2023-12-21T00:55:01.459Z,1018.3
2023-12-21T00:56:01.015Z,1018.4
2023-12-21T00:57:01.042Z,1018.3
2023-12-21T00:58:01.466Z,1018.3
2023-12-21T00:59:01.265Z,1018.4
2023-12-21T01:00:01.631Z,1018.3
2023-12-21T01:01:01.124Z,1018.4
2023-12-21T01:02:01.513Z,1018.3
2023-12-21T01:03:01.229Z,1018.3
2023-12-21T01:04:01.139Z,1018.3
2023-12-21T01:05:01.033Z,1018.3
2023-12-21T01:06:01.148Z,1018.3
2023-12-21T01:07:01.594Z,1018.2
2023-12-21T01:08:01.045Z,1018.3
2023-12-21T01:09:01.039Z,1018.2
2023-12-21T01:10:03.777Z,1018.3
2023-12-21T01:11:01.029Z,1018.2
2023-12-21T01:12:01.370Z,1018.2
2023-12-21T01:13:01.424Z,1018.2
2023-12-21T01:14:01.380Z,1018.2
2023-12-21T01:15:02.768Z,1018.2
2023-12-21T01:16:01.399Z,1018.2
2023-12-21T01:17:01.406Z,1018.2
2023-12-21T01:18:01.162Z,1018.2
2023-12-21T01:19:01.129Z,1018.2
2023-12-21T01:20:01.148Z,1018.1
2023-12-21T01:21:01.583Z,1018.2
2023-12-21T01:22:01.505Z,1018.2
2023-12-21T01:23:01.391Z,1018.2
2023-12-21T01:24:01.377Z,1018.2
2023-12-21T01:25:01.512Z,1018.2
2023-12-21T01:26:01.037Z,1018.2
2023-12-21T01:27:01.348Z,1018.2
2023-12-21T01:28:01.160Z,1018.3
2023-12-21T01:29:01.376Z,1018.1
2023-12-21T01:30:01.093Z,1018.2
2023-12-21T01:31:01.309Z,1018.2
2023-12-21T01:32:02.870Z,1018.2
2023-12-21T01:33:01.547Z,1018.2
2023-12-21T01:34:01.180Z,1018.2
2023-12-21T01:35:01.621Z,1018.2
2023-12-21T01:36:01.066Z,1018.2
2023-12-21T01:37:01.366Z,1018.2
2023-12-21T01:38:01.378Z,1018.3
2023-12-21T01:39:01.371Z,1018.3
2023-12-21T01:40:01.140Z,1018.3
2023-12-21T01:41:01.387Z,1018.3
2023-12-21T01:42:01.049Z,1018.3
2023-12-21T01:43:01.189Z,1018.3
2023-12-21T01:44:01.020Z,1018.3
2023-12-21T01:45:01.052Z,1018.3
2023-12-21T01:46:03.248Z,1018.3
2023-12-21T01:47:01.096Z,1018.3
2023-12-21T01:48:01.994Z,1018.3
2023-12-21T01:49:01.804Z,1018.3
2023-12-21T01:50:01.815Z,1018.3
2023-12-21T01:51:01.830Z,1018.3
2023-12-21T01:52:01.896Z,1018.3
2023-12-21T01:53:02.006Z,1018.3
2023-12-21T01:54:02.267Z,1018.3
2023-12-21T01:55:02.445Z,1018.3
2023-12-21T01:56:02.674Z,1018.3
2023-12-21T01:57:01.486Z,1018.3
2023-12-21T01:58:01.573Z,1018.3
2023-12-21T01:59:01.393Z,1018.3
2023-12-21T02:00:01.342Z,1018.3
2023-12-21T02:01:03.710Z,1018.3
2023-12-21T02:02:01.142Z,1018.3
2023-12-21T02:03:01.268Z,1018.2
2023-12-21T02:04:01.697Z,1018.3
2023-12-21T02:05:03.106Z,1018.3
2023-12-21T02:06:01.043Z,1018.3
2023-12-21T02:07:01.472Z,1018.2
2023-12-21T02:08:01.619Z,1018.2
2023-12-21T02:09:01.437Z,1018.2
2023-12-21T02:10:01.115Z,1018.2
2023-12-21T02:11:06.895Z,1018.2
2023-12-21T02:12:01.033Z,1018.2
2023-12-21T02:13:01.180Z,1018.2
2023-12-21T02:14:01.035Z,1018.2
2023-12-21T02:15:01.072Z,1018.2
2023-12-21T02:16:05.500Z,1018.2
2023-12-21T02:17:05.900Z,1018.2
2023-12-21T02:18:02.962Z,1018.2
2023-12-21T02:19:02.549Z,1018.2
2023-12-21T02:20:02.368Z,1018.2
2023-12-21T02:21:02.250Z,1018.2
2023-12-21T02:22:03.844Z,1018.3
2023-12-21T02:23:03.473Z,1018.2
2023-12-21T02:24:03.919Z,1018.2
2023-12-21T02:25:02.086Z,1018.2
2023-12-21T02:26:01.120Z,1018.2
2023-12-21T02:27:01.188Z,1018.2
2023-12-21T02:28:01.113Z,1018.2
2023-12-21T02:29:01.022Z,1018.2
2023-12-21T02:30:01.350Z,1018.1
2023-12-21T02:31:01.470Z,1018.2
2023-12-21T02:32:01.186Z,1018.2
2023-12-21T02:33:01.627Z,1018.2
2023-12-21T02:34:01.819Z,1018.2
2023-12-21T02:35:01.407Z,1018.2
2023-12-21T02:36:01.051Z,1018.3
2023-12-21T02:37:01.088Z,1018.2
2023-12-21T02:38:02.023Z,1018.3
2023-12-21T02:39:01.434Z,1018.2
2023-12-21T02:40:01.693Z,1018.3
2023-12-21T02:41:01.380Z,1018.3
2023-12-21T02:42:01.033Z,1018.3
2023-12-21T02:43:01.044Z,1018.3
2023-12-21T02:44:01.040Z,1018.3
2023-12-21T02:45:01.043Z,1018.3
2023-12-21T02:46:01.074Z,1018.3
2023-12-21T02:47:01.094Z,1018.3
2023-12-21T02:48:01.403Z,1018.3
2023-12-21T02:49:01.298Z,1018.3
2023-12-21T02:50:01.101Z,1018.4
2023-12-21T02:51:01.387Z,1018.3
2023-12-21T02:52:01.380Z,1018.4
2023-12-21T02:53:01.073Z,1018.3
2023-12-21T02:54:01.405Z,1018.3
2023-12-21T02:55:01.559Z,1018.3
2023-12-21T02:56:01.024Z,1018.3
2023-12-21T02:57:01.391Z,1018.3
2023-12-21T02:58:01.386Z,1018.3
2023-12-21T02:59:01.056Z,1018.3
2023-12-21T03:00:01.334Z,1018.3
2023-12-21T03:01:01.521Z,1018.3
2023-12-21T03:02:01.102Z,1018.2
2023-12-21T03:03:01.409Z,1018.3
2023-12-21T03:04:01.062Z,1018.2
2023-12-21T03:05:01.440Z,1018.3
2023-12-21T03:06:01.392Z,1018.3
2023-12-21T03:07:01.056Z,1018.2
2023-12-21T03:08:01.065Z,1018.2
2023-12-21T03:09:01.419Z,1018.2
2023-12-21T03:10:01.128Z,1018.2
2023-12-21T03:11:01.640Z,1018.2
2023-12-21T03:12:01.027Z,1018.2
2023-12-21T03:13:01.389Z,1018.2
2023-12-21T03:14:01.402Z,1018.2
2023-12-21T03:15:01.057Z,1018.2
2023-12-21T03:16:03.772Z,1018.2
2023-12-21T03:17:01.396Z,1018.2
2023-12-21T03:18:01.126Z,1018.2
2023-12-21T03:19:01.143Z,1018.2
2023-12-21T03:20:01.186Z,1018.3
2023-12-21T03:21:01.023Z,1018.2
2023-12-21T03:22:01.180Z,1018.3
2023-12-21T03:23:01.048Z,1018.3
2023-12-21T03:24:01.393Z,1018.3
2023-12-21T03:25:01.129Z,1018.3
2023-12-21T03:26:01.368Z,1018.3
2023-12-21T03:27:01.022Z,1018.3
2023-12-21T03:28:01.516Z,1018.3
2023-12-21T03:29:01.086Z,1018.3
2023-12-21T03:30:01.068Z,1018.3
2023-12-21T03:31:01.764Z,1018.3
2023-12-21T03:32:01.396Z,1018.3
2023-12-21T03:33:01.645Z,1018.3
2023-12-21T03:34:01.444Z,1018.3
2023-12-21T03:35:01.090Z,1018.3
2023-12-21T03:36:01.035Z,1018.3
2023-12-21T03:37:01.070Z,1018.3
2023-12-21T03:38:01.418Z,1018.3
2023-12-21T03:39:01.073Z,1018.2
2023-12-21T03:40:01.169Z,1018.2
2023-12-21T03:41:01.384Z,1018.2
2023-12-21T03:42:01.385Z,1018.2
2023-12-21T03:43:01.412Z,1018.2
2023-12-21T03:44:01.598Z,1018.2
2023-12-21T03:45:01.505Z,1018.2
2023-12-21T03:46:01.858Z,1018.3
2023-12-21T03:47:01.023Z,1018.3
2023-12-21T03:48:01.141Z,1018.2
2023-12-21T03:49:01.453Z,1018.2
2023-12-21T03:50:01.616Z,1018.2
2023-12-21T03:51:01.429Z,1018.2
2023-12-21T03:52:01.421Z,1018.2
2023-12-21T03:53:01.419Z,1018.2
2023-12-21T03:54:01.054Z,1018.1
2023-12-21T03:55:01.310Z,1018.2
2023-12-21T03:56:01.130Z,1018.1
2023-12-21T03:57:01.392Z,1018.1
2023-12-21T03:58:01.216Z,1018.1
2023-12-21T03:59:01.112Z,1018.1
2023-12-21T04:00:01.407Z,1018.1
2023-12-21T04:01:01.190Z,1018.1
2023-12-21T04:02:01.599Z,1018.1
2023-12-21T04:03:01.655Z,1018.1
2023-12-21T04:04:01.188Z,1018.1
2023-12-21T04:05:01.314Z,1018.1
2023-12-21T04:06:01.393Z,1018.1
2023-12-21T04:07:01.195Z,1018.1
2023-12-21T04:08:01.400Z,1018.2
2023-12-21T04:09:01.378Z,1018.2
2023-12-21T04:10:01.181Z,1018.2
2023-12-21T04:11:01.171Z,1018.1
2023-12-21T04:12:01.369Z,1018.1
2023-12-21T04:13:01.065Z,1018.2
2023-12-21T04:14:01.552Z,1018.2
2023-12-21T04:15:01.251Z,1018.2
2023-12-21T04:16:01.152Z,1018.2
2023-12-21T04:17:01.288Z,1018.2
2023-12-21T04:18:01.071Z,1018.2
2023-12-21T04:19:01.347Z,1018.1
2023-12-21T04:20:01.245Z,1018.1
2023-12-21T04:21:02.146Z,1018.2
2023-12-21T04:22:01.469Z,1018.2
2023-12-21T04:23:01.335Z,1018.2
2023-12-21T04:24:01.057Z,1018.2
2023-12-21T04:25:01.503Z,1018.2
2023-12-21T04:26:01.088Z,1018.2
2023-12-21T04:27:01.075Z,1018.2
2023-12-21T04:28:02.564Z,1018.2
2023-12-21T04:29:01.066Z,1018.2
2023-12-21T04:30:02.302Z,1018.2
2023-12-21T04:31:01.639Z,1018.1
2023-12-21T04:32:01.048Z,1018.1
2023-12-21T04:33:01.164Z,1018.2
2023-12-21T04:34:01.614Z,1018.2
2023-12-21T04:35:01.349Z,1018.2
2023-12-21T04:36:01.029Z,1018.2
2023-12-21T04:37:01.083Z,1018.2
2023-12-21T04:38:01.415Z,1018.3
2023-12-21T04:39:02.050Z,1018.2
2023-12-21T04:40:01.157Z,1018.2
2023-12-21T04:41:01.019Z,1018.2
2023-12-21T04:42:01.503Z,1018.2
2023-12-21T04:43:01.102Z,1018.2
2023-12-21T04:44:01.459Z,1018.2
2023-12-21T04:45:01.390Z,1018.2
2023-12-21T04:46:01.123Z,1018.2
2023-12-21T04:47:01.036Z,1018.2
2023-12-21T04:48:01.074Z,1018.2
2023-12-21T04:49:01.522Z,1018.2
2023-12-21T04:50:01.509Z,1018.2
2023-12-21T04:51:01.744Z,1018.2
2023-12-21T04:52:01.562Z,1018.2
2023-12-21T04:53:01.374Z,1018.3
2023-12-21T04:54:01.379Z,1018.3
2023-12-21T04:55:01.151Z,1018.3
2023-12-21T04:56:03.434Z,1018.3
2023-12-21T04:57:01.024Z,1018.2
2023-12-21T04:58:01.044Z,1018.3
2023-12-21T04:59:01.047Z,1018.3
2023-12-21T05:00:01.376Z,1018.3
2023-12-21T05:01:01.727Z,1018.3
2023-12-21T05:02:01.602Z,1018.4
2023-12-21T05:03:01.399Z,1018.4
2023-12-21T05:04:03.424Z,1018.3
2023-12-21T05:05:01.113Z,1018.3
2023-12-21T05:06:01.824Z,1018.4
2023-12-21T05:07:01.405Z,1018.4
2023-12-21T05:08:01.031Z,1018.3
2023-12-21T05:09:01.082Z,1018.3
2023-12-21T05:10:01.109Z,1018.4
2023-12-21T05:11:01.023Z,1018.3
2023-12-21T05:12:01.236Z,1018.3
2023-12-21T05:13:01.384Z,1018.4
2023-12-21T05:14:01.376Z,1018.4
2023-12-21T05:15:01.382Z,1018.4
2023-12-21T05:16:01.061Z,1018.4
2023-12-21T05:17:01.077Z,1018.4
2023-12-21T05:18:01.575Z,1018.4
2023-12-21T05:19:01.112Z,1018.4
2023-12-21T05:20:01.106Z,1018.4
2023-12-21T05:21:01.058Z,1018.4
2023-12-21T05:22:01.104Z,1018.4
2023-12-21T05:23:02.326Z,1018.5
2023-12-21T05:24:01.433Z,1018.5
2023-12-21T05:25:01.442Z,1018.5
2023-12-21T05:26:01.050Z,1018.5
2023-12-21T05:27:01.347Z,1018.4
2023-12-21T05:28:01.106Z,1018.5
2023-12-21T05:29:01.096Z,1018.4
2023-12-21T05:30:01.033Z,1018.5
2023-12-21T05:31:01.142Z,1018.4
2023-12-21T05:32:01.400Z,1018.4
2023-12-21T05:33:01.441Z,1018.4
2023-12-21T05:34:01.610Z,1018.4
2023-12-21T05:35:02.702Z,1018.5
2023-12-21T05:36:01.045Z,1018.5
2023-12-21T05:37:01.656Z,1018.5
2023-12-21T05:38:01.034Z,1018.5
2023-12-21T05:39:01.607Z,1018.5
2023-12-21T05:40:01.079Z,1018.5
2023-12-21T05:41:01.385Z,1018.5
2023-12-21T05:42:01.386Z,1018.6
2023-12-21T05:43:01.380Z,1018.5
2023-12-21T05:44:01.337Z,1018.5
2023-12-21T05:45:02.496Z,1018.5
2023-12-21T05:46:01.064Z,1018.5
2023-12-21T05:47:01.034Z,1018.5
2023-12-21T05:48:01.087Z,1018.6
2023-12-21T05:49:01.528Z,1018.6
2023-12-21T05:50:01.491Z,1018.6
2023-12-21T05:51:01.060Z,1018.6
2023-12-21T05:52:01.127Z,1018.6
2023-12-21T05:53:01.030Z,1018.6
2023-12-21T05:54:01.485Z,1018.7
2023-12-21T05:55:01.465Z,1018.6
2023-12-21T05:56:01.251Z,1018.7
2023-12-21T05:57:01.040Z,1018.7
2023-12-21T05:58:01.094Z,1018.7
2023-12-21T05:59:01.375Z,1018.7
2023-12-21T06:00:01.400Z,1018.7
2023-12-21T06:01:01.423Z,1018.7
2023-12-21T06:02:01.099Z,1018.7
2023-12-21T06:03:01.039Z,1018.7
2023-12-21T06:04:01.117Z,1018.7
2023-12-21T06:05:01.544Z,1018.8
2023-12-21T06:06:01.104Z,1018.8
2023-12-21T06:07:01.542Z,1018.8
2023-12-21T06:08:01.367Z,1018.8
2023-12-21T06:09:01.044Z,1018.8
2023-12-21T06:10:01.136Z,1018.8
2023-12-21T06:11:01.107Z,1018.8
2023-12-21T06:12:01.360Z,1018.8
2023-12-21T06:13:01.112Z,1018.7
2023-12-21T06:14:01.083Z,1018.7
2023-12-21T06:15:01.063Z,1018.8
2023-12-21T06:16:01.054Z,1018.8
2023-12-21T06:17:01.338Z,1018.8
2023-12-21T06:18:01.303Z,1018.8
2023-12-21T06:19:01.169Z,1018.8
2023-12-21T06:20:01.420Z,1018.7
2023-12-21T06:21:01.026Z,1018.7
2023-12-21T06:22:01.410Z,1018.7
2023-12-21T06:23:01.744Z,1018.7
2023-12-21T06:24:01.045Z,1018.7
2023-12-21T06:25:01.449Z,1018.7
2023-12-21T06:26:01.413Z,1018.7
2023-12-21T06:27:01.417Z,1018.7
2023-12-21T06:28:01.072Z,1018.7
2023-12-21T06:29:01.249Z,1018.6
2023-12-21T06:30:01.116Z,1018.7
2023-12-21T06:31:01.117Z,1018.7
2023-12-21T06:32:01.127Z,1018.6
2023-12-21T06:33:01.070Z,1018.7
2023-12-21T06:34:01.409Z,1018.7
2023-12-21T06:35:01.449Z,1018.6
2023-12-21T06:36:01.372Z,1018.6
2023-12-21T06:37:01.395Z,1018.7
2023-12-21T06:38:01.069Z,1018.6
2023-12-21T06:39:01.057Z,1018.7
2023-12-21T06:40:01.624Z,1018.7
2023-12-21T06:41:01.040Z,1018.7
2023-12-21T06:42:01.373Z,1018.7
2023-12-21T06:43:01.061Z,1018.8
2023-12-21T06:44:01.419Z,1018.8
2023-12-21T06:45:01.188Z,1018.8
2023-12-21T06:46:01.061Z,1018.8
2023-12-21T06:47:01.042Z,1018.8
2023-12-21T06:48:01.480Z,1018.8
2023-12-21T06:49:01.095Z,1018.8
2023-12-21T06:50:01.129Z,1018.8
2023-12-21T06:51:02.802Z,1018.8
2023-12-21T06:52:01.067Z,1018.9
2023-12-21T06:53:01.423Z,1018.9
2023-12-21T06:54:01.034Z,1018.9
2023-12-21T06:55:01.417Z,1018.8
2023-12-21T06:56:13.995Z,1018.9
2023-12-21T06:57:01.027Z,1018.9
2023-12-21T06:58:01.101Z,1018.9
2023-12-21T06:59:01.036Z,1019.0
2023-12-21T07:00:01.072Z,1019.0
2023-12-21T07:01:01.413Z,1019.0
2023-12-21T07:02:02.028Z,1019.0
2023-12-21T07:03:01.193Z,1018.9
2023-12-21T07:04:01.070Z,1018.9
2023-12-21T07:05:01.425Z,1019.0
2023-12-21T07:06:01.127Z,1018.9
2023-12-21T07:07:01.388Z,1019.0
2023-12-21T07:08:01.081Z,1019.1
2023-12-21T07:09:01.102Z,1019.0
2023-12-21T07:10:01.432Z,1019.0
2023-12-21T07:11:01.539Z,1019.0
2023-12-21T07:12:01.372Z,1019.0
2023-12-21T07:13:01.202Z,1019.1
2023-12-21T07:14:01.352Z,1019.1
2023-12-21T07:15:01.404Z,1019.1
2023-12-21T07:16:01.091Z,1019.1
2023-12-21T07:17:01.353Z,1019.1
2023-12-21T07:18:01.091Z,1019.1
2023-12-21T07:19:01.479Z,1019.0
2023-12-21T07:20:01.031Z,1019.2
2023-12-21T07:21:01.022Z,1019.1
2023-12-21T07:22:01.442Z,1019.2
2023-12-21T07:23:01.045Z,1019.2
2023-12-21T07:24:05.101Z,1019.1
2023-12-21T07:25:01.526Z,1019.2
2023-12-21T07:26:01.029Z,1019.2
2023-12-21T07:27:01.030Z,1019.2
2023-12-21T07:28:01.411Z,1019.2
2023-12-21T07:29:01.417Z,1019.3
2023-12-21T07:30:01.108Z,1019.2
2023-12-21T07:31:01.208Z,1019.3
2023-12-21T07:32:01.041Z,1019.3
2023-12-21T07:33:01.775Z,1019.3
2023-12-21T07:34:01.172Z,1019.3
2023-12-21T07:35:01.349Z,1019.3
2023-12-21T07:36:01.373Z,1019.3
2023-12-21T07:37:01.465Z,1019.3
2023-12-21T07:38:01.483Z,1019.3
2023-12-21T07:39:01.385Z,1019.2
2023-12-21T07:40:01.108Z,1019.3
2023-12-21T07:41:01.348Z,1019.3
2023-12-21T07:42:01.715Z,1019.3
2023-12-21T07:43:01.081Z,1019.3
2023-12-21T07:44:01.738Z,1019.3
2023-12-21T07:45:01.379Z,1019.3
2023-12-21T07:46:01.271Z,1019.3
2023-12-21T07:47:01.490Z,1019.3
2023-12-21T07:48:01.044Z,1019.3
2023-12-21T07:49:01.129Z,1019.2
2023-12-21T07:50:01.078Z,1019.3
2023-12-21T07:51:01.035Z,1019.3
2023-12-21T07:52:01.299Z,1019.3
2023-12-21T07:53:01.045Z,1019.3
2023-12-21T07:54:01.405Z,1019.3
2023-12-21T07:55:01.630Z,1019.3
2023-12-21T07:56:01.468Z,1019.3
2023-12-21T07:57:01.482Z,1019.3
2023-12-21T07:58:01.049Z,1019.3
2023-12-21T07:59:01.031Z,1019.3
2023-12-21T08:00:01.886Z,1019.3
2023-12-21T08:01:01.800Z,1019.4
2023-12-21T08:02:01.039Z,1019.4
2023-12-21T08:03:01.043Z,1019.4
2023-12-21T08:04:01.287Z,1019.5
2023-12-21T08:05:01.047Z,1019.5
2023-12-21T08:06:01.394Z,1019.5
2023-12-21T08:07:01.378Z,1019.4
2023-12-21T08:08:01.610Z,1019.4
2023-12-21T08:09:01.041Z,1019.5
2023-12-21T08:10:01.387Z,1019.5
2023-12-21T08:11:01.032Z,1019.5
2023-12-21T08:12:01.029Z,1019.5
2023-12-21T08:13:01.393Z,1019.5
2023-12-21T08:14:01.038Z,1019.5
2023-12-21T08:15:01.752Z,1019.5
2023-12-21T08:16:01.092Z,1019.5
2023-12-21T08:17:01.046Z,1019.5
2023-12-21T08:18:01.191Z,1019.5
2023-12-21T08:19:01.584Z,1019.5
2023-12-21T08:20:01.152Z,1019.4
2023-12-21T08:21:01.066Z,1019.4
2023-12-21T08:22:01.033Z,1019.5
2023-12-21T08:23:01.089Z,1019.4
2023-12-21T08:24:01.025Z,1019.5
2023-12-21T08:25:01.067Z,1019.5
2023-12-21T08:26:01.143Z,1019.4
2023-12-21T08:27:01.459Z,1019.4
2023-12-21T08:28:01.114Z,1019.5
2023-12-21T08:29:01.158Z,1019.5
2023-12-21T08:30:01.292Z,1019.5
2023-12-21T08:31:01.110Z,1019.5
2023-12-21T08:32:01.096Z,1019.5
2023-12-21T08:33:01.538Z,1019.6
2023-12-21T08:34:01.079Z,1019.6
2023-12-21T08:35:01.085Z,1019.6
2023-12-21T08:36:01.257Z,1019.7
2023-12-21T08:37:01.418Z,1019.7
2023-12-21T08:38:01.360Z,1019.7
2023-12-21T08:39:01.041Z,1019.6
2023-12-21T08:40:01.430Z,1019.7
2023-12-21T08:41:02.086Z,1019.6
2023-12-21T08:42:01.618Z,1019.6
2023-12-21T08:43:01.495Z,1019.7
2023-12-21T08:44:01.388Z,1019.7
2023-12-21T08:45:03.658Z,1019.7
2023-12-21T08:46:01.543Z,1019.7
2023-12-21T08:47:01.106Z,1019.7
2023-12-21T08:48:01.466Z,1019.8
2023-12-21T08:49:01.114Z,1019.7
2023-12-21T08:50:01.138Z,1019.7
2023-12-21T08:51:01.109Z,1019.7
2023-12-21T08:52:01.865Z,1019.7
2023-12-21T08:53:01.473Z,1019.7
2023-12-21T08:54:01.030Z,1019.7
2023-12-21T08:55:01.073Z,1019.7
2023-12-21T08:56:03.291Z,1019.7
2023-12-21T08:57:01.045Z,1019.7
2023-12-21T08:58:01.404Z,1019.7
2023-12-21T08:59:01.052Z,1019.7
2023-12-21T09:00:01.056Z,1019.7
2023-12-21T09:01:01.209Z,1019.7
2023-12-21T09:02:01.190Z,1019.7
2023-12-21T09:03:01.199Z,1019.7
2023-12-21T09:04:01.142Z,1019.7
2023-12-21T09:05:01.133Z,1019.7
2023-12-21T09:06:01.071Z,1019.7
2023-12-21T09:07:01.111Z,1019.7
2023-12-21T09:08:01.405Z,1019.7
2023-12-21T09:09:02.702Z,1019.7
2023-12-21T09:10:01.736Z,1019.7
2023-12-21T09:11:01.089Z,1019.7
2023-12-21T09:12:01.444Z,1019.7
2023-12-21T09:13:01.094Z,1019.7
2023-12-21T09:14:01.476Z,1019.7
2023-12-21T09:15:01.352Z,1019.7
2023-12-21T09:16:01.368Z,1019.7
2023-12-21T09:17:01.026Z,1019.7
2023-12-21T09:18:01.132Z,1019.7
2023-12-21T09:19:01.354Z,1019.8
2023-12-21T09:20:02.018Z,1019.8
2023-12-21T09:21:01.356Z,1019.8
2023-12-21T09:22:01.417Z,1019.8
2023-12-21T09:23:01.071Z,1019.9
2023-12-21T09:24:01.356Z,1019.9
2023-12-21T09:25:01.826Z,1019.9
2023-12-21T09:26:01.086Z,1019.9
2023-12-21T09:27:01.041Z,1019.9
2023-12-21T09:28:01.429Z,1019.9
2023-12-21T09:29:02.130Z,1019.9
2023-12-21T09:30:01.070Z,1019.9
2023-12-21T09:31:01.222Z,1019.9
2023-12-21T09:32:01.700Z,1019.9
2023-12-21T09:33:01.114Z,1019.9
2023-12-21T09:34:01.104Z,1019.9
2023-12-21T09:35:01.243Z,1019.9
2023-12-21T09:36:01.705Z,1019.9
2023-12-21T09:37:02.756Z,1019.9
2023-12-21T09:38:01.367Z,1019.9
2023-12-21T09:39:01.046Z,1020.0
2023-12-21T09:40:01.592Z,1020.0
2023-12-21T09:41:01.414Z,1020.0
2023-12-21T09:43:12.305Z,1020.0
2023-12-21T09:44:02.289Z,1020.0
2023-12-21T09:45:02.470Z,1020.0
2023-12-21T09:46:01.616Z,1020.0
2023-12-21T09:47:03.968Z,1020.0
2023-12-21T09:48:01.887Z,1020.0
2023-12-21T09:49:02.159Z,1020.0
2023-12-21T09:50:02.415Z,1020.0
2023-12-21T09:51:01.936Z,1020.1
2023-12-21T09:52:03.509Z,1020.1
2023-12-21T09:53:01.828Z,1020.0
2023-12-21T09:54:02.476Z,1020.0
2023-12-21T09:55:03.479Z,1020.1
2023-12-21T09:56:01.420Z,1020.1
2023-12-21T09:57:03.400Z,1020.1
2023-12-21T09:58:03.355Z,1020.1
2023-12-21T09:59:01.679Z,1020.1
2023-12-21T10:00:02.221Z,1020.1
2023-12-21T10:01:01.643Z,1020.1
2023-12-21T10:02:01.694Z,1020.1
2023-12-21T10:03:01.070Z,1020.1
2023-12-21T10:04:01.271Z,1020.1
2023-12-21T10:05:02.395Z,1020.1
2023-12-21T10:06:01.842Z,1020.1
2023-12-21T10:07:01.073Z,1020.1
2023-12-21T10:08:02.454Z,1020.1
2023-12-21T10:09:01.274Z,1020.2
2023-12-21T10:10:01.547Z,1020.2
2023-12-21T10:11:01.303Z,1020.2
2023-12-21T10:12:01.231Z,1020.2
2023-12-21T10:13:03.249Z,1020.1
2023-12-21T10:14:01.026Z,1020.1
2023-12-21T10:15:01.480Z,1020.2
2023-12-21T10:16:02.204Z,1020.2
2023-12-21T10:17:02.045Z,1020.2
2023-12-21T10:18:01.678Z,1020.3
2023-12-21T10:19:01.474Z,1020.3
2023-12-21T10:20:06.538Z,1020.2
2023-12-21T10:21:01.947Z,1020.3
2023-12-21T10:22:02.087Z,1020.2
2023-12-21T10:23:01.669Z,1020.3
2023-12-21T10:24:01.096Z,1020.3
2023-12-21T10:25:01.518Z,1020.3
2023-12-21T10:26:01.078Z,1020.3
2023-12-21T10:27:01.027Z,1020.3
2023-12-21T10:28:02.160Z,1020.3
2023-12-21T10:29:01.027Z,1020.3
2023-12-21T10:30:02.635Z,1020.3
2023-12-21T10:31:01.487Z,1020.3
2023-12-21T10:32:04.066Z,1020.3
2023-12-21T10:33:02.309Z,1020.3
2023-12-21T10:34:01.584Z,1020.3
2023-12-21T10:35:01.970Z,1020.3
2023-12-21T10:36:01.383Z,1020.4
2023-12-21T10:37:01.210Z,1020.4
2023-12-21T10:38:01.063Z,1020.3
2023-12-21T10:39:01.674Z,1020.3
2023-12-21T10:40:01.378Z,1020.4
2023-12-21T10:41:01.429Z,1020.4
2023-12-21T10:42:04.253Z,1020.4
2023-12-21T10:43:01.475Z,1020.4
2023-12-21T10:44:04.477Z,1020.4
2023-12-21T10:45:07.584Z,1020.4
2023-12-21T10:46:02.665Z,1020.4
2023-12-21T10:47:01.817Z,1020.5
2023-12-21T10:48:06.525Z,1020.4
2023-12-21T10:49:01.754Z,1020.5
2023-12-21T10:50:02.260Z,1020.5
2023-12-21T10:51:04.008Z,1020.6
2023-12-21T10:52:02.602Z,1020.6
2023-12-21T10:53:02.528Z,1020.6
2023-12-21T10:54:01.764Z,1020.6
2023-12-21T10:55:02.309Z,1020.6
2023-12-21T10:56:02.830Z,1020.7
2023-12-21T10:57:01.832Z,1020.7
2023-12-21T10:58:01.626Z,1020.7
2023-12-21T10:59:03.293Z,1020.6
2023-12-21T11:00:02.724Z,1020.6
2023-12-21T11:01:02.059Z,1020.7
2023-12-21T11:02:02.483Z,1020.7
2023-12-21T11:03:05.158Z,1020.7
2023-12-21T11:04:03.040Z,1020.7
2023-12-21T11:05:01.552Z,1020.7
2023-12-21T11:06:03.441Z,1020.7
2023-12-21T11:07:03.787Z,1020.7
2023-12-21T11:08:04.045Z,1020.7
2023-12-21T11:09:02.263Z,1020.7
2023-12-21T11:10:02.702Z,1020.7
2023-12-21T11:11:01.848Z,1020.8
2023-12-21T11:12:01.041Z,1020.8
2023-12-21T11:13:01.503Z,1020.8
2023-12-21T11:14:01.049Z,1020.8
2023-12-21T11:15:01.434Z,1020.8
2023-12-21T11:16:02.240Z,1020.8
2023-12-21T11:17:03.590Z,1020.8
2023-12-21T11:18:07.521Z,1020.8
2023-12-21T11:19:05.173Z,1020.8
2023-12-21T11:20:03.032Z,1020.8
2023-12-21T11:21:04.318Z,1020.8
2023-12-21T11:22:01.747Z,1020.8
2023-12-21T11:23:04.614Z,1020.8
2023-12-21T11:24:01.099Z,1020.8
2023-12-21T11:25:02.035Z,1020.8
2023-12-21T11:26:01.623Z,1020.8
2023-12-21T11:27:01.568Z,1020.9
2023-12-21T11:28:02.579Z,1020.9
2023-12-21T11:29:03.895Z,1020.9
2023-12-21T11:30:07.794Z,1020.8
2023-12-21T11:31:12.094Z,1020.9
2023-12-21T11:32:01.049Z,1021.0
2023-12-21T11:33:04.658Z,1021.0
2023-12-21T11:34:10.291Z,1021.0
2023-12-21T11:35:01.383Z,1020.9
2023-12-21T11:36:01.409Z,1020.9
2023-12-21T11:37:14.741Z,1020.9
2023-12-21T11:38:06.069Z,1021.0
2023-12-21T11:39:02.476Z,1021.0
2023-12-21T11:40:02.406Z,1021.0
2023-12-21T11:41:03.516Z,1021.0
2023-12-21T11:42:01.619Z,1021.0
2023-12-21T11:43:01.507Z,1021.0
2023-12-21T11:44:02.335Z,1021.0
2023-12-21T11:45:03.241Z,1021.0
2023-12-21T11:46:01.137Z,1021.0
2023-12-21T11:47:01.246Z,1020.9
2023-12-21T11:48:02.427Z,1020.9
2023-12-21T11:49:01.781Z,1020.9
2023-12-21T11:50:04.000Z,1020.9
2023-12-21T11:51:01.403Z,1021.0
2023-12-21T11:52:01.392Z,1021.0
2023-12-21T11:53:13.037Z,1021.0
2023-12-21T11:54:05.186Z,1020.9
2023-12-21T11:55:01.140Z,1020.9
2023-12-21T11:56:12.237Z,1021.0
2023-12-21T11:57:11.030Z,1021.0
2023-12-21T11:58:07.805Z,1020.9
2023-12-21T11:59:04.130Z,1021.0
2023-12-21T12:00:05.895Z,1021.0
2023-12-21T12:01:01.094Z,1021.1
2023-12-21T12:02:01.586Z,1021.1
2023-12-21T12:03:01.866Z,1021.1
2023-12-21T12:04:03.962Z,1021.1
2023-12-21T12:05:01.548Z,1021.1
2023-12-21T12:06:01.996Z,1021.1
2023-12-21T12:07:03.819Z,1021.1
2023-12-21T12:08:01.527Z,1021.1
2023-12-21T12:09:01.355Z,1021.1
2023-12-21T12:10:01.687Z,1021.1
2023-12-21T12:11:01.517Z,1021.1
2023-12-21T12:12:01.519Z,1021.1
2023-12-21T12:13:02.926Z,1021.1
2023-12-21T12:14:01.062Z,1021.0
2023-12-21T12:15:01.353Z,1021.1
2023-12-21T12:16:01.370Z,1021.1
2023-12-21T12:17:02.016Z,1021.1
2023-12-21T12:18:01.488Z,1021.1
2023-12-21T12:19:01.242Z,1021.2
2023-12-21T12:20:01.449Z,1021.2
2023-12-21T12:21:02.629Z,1021.2
2023-12-21T12:22:02.430Z,1021.2
2023-12-21T12:23:01.109Z,1021.2
2023-12-21T12:24:01.090Z,1021.2
2023-12-21T12:25:01.300Z,1021.2
2023-12-21T12:26:02.735Z,1021.3
2023-12-21T12:27:01.408Z,1021.3
2023-12-21T12:28:01.059Z,1021.3
2023-12-21T12:29:01.705Z,1021.2